Espaço - Ciências - Fenômenos Naturais
Meteógrafos Informações Meteorológicas em tempo real

Aeroporto de Congonhas

Histórico do Tempo
Temperatura atual: 13 graus 55 F    Umidade relativa: 82 %
Velocidade do vento: 06 nós 10 Km/h    Direção: 130 graus SE
Ajuste do altímetro ..: 1019 HPA
Visibilidade: Ótima    Tempo presente: Céu Limpo

Observação

Data Hora BRTTempo°CUmidadePressãoVentoVisib.
21/10 - 03:55   Céu Limpo 13° 82% 1019 Sudeste/10 km/h OK
21/10 - 02:55   Não Disponível 14° 76% 1020 Este-sudeste/12 km/h OK
21/10 - 01:55   Poucas nuvens esparsas 14° 76% 1020 Sudeste/12 km/h 9999
20/10 - 23:55   Parcialmente Nublado 14° 76% 1020 Sudeste/14 km/h 9999
20/10 - 22:55   Não Disponível 14° 76% 1021 Sul-sudeste/18 km/h OK
20/10 - 21:55   Não Disponível 14° 76% 1021 Sul-sudeste/18 km/h OK
20/10 - 20:55   Poucas nuvens esparsas 15° 77% 1020 Sul-sudeste/21 km/h OK
20/10 - 19:55   Poucas nuvens esparsas 15° 77% 1020 Sul-sudeste/21 km/h OK
20/10 - 18:55   Não Disponível 16° 63% 1019 Sul-sudeste/30 km/h OK
20/10 - 17:55   Não Disponível 16° 63% 1019 Sul-sudeste/30 km/h OK
20/10 - 16:55   Parcialmente Nublado 17° 59% 1019 Sul/27 km/h OK
20/10 - 15:55   Não Disponível 19° 56% 1018 Sul-sudeste/23 km/h OK
20/10 - 14:55   Não Disponível 19° 56% 1018 Sul-sudeste/23 km/h OK
20/10 - 13:55   Não Disponível 20° 52% 1020 Sul/21 km/h OK
20/10 - 12:55   Poucas nuvens esparsas 18° 55% 1020 Sul-sudeste/21 km/h OK
20/10 - 11:55   Parcialmente Nublado 17° 67% 1021 Sul-sudeste/21 km/h OK
20/10 - 10:55   Parcialmente Nublado 17° 67% 1021 Sul-sudeste/21 km/h OK
20/10 - 09:55   Parcialmente Nublado 17° 63% 1021 Sul-sudeste/23 km/h OK
20/10 - 08:55   Parcialmente Nublado 16° 77% 1022 Sul-sudeste/19 km/h OK
20/10 - 07:55   Parcialmente Nublado 16° 77% 1022 Sul-sudeste/19 km/h OK
20/10 - 06:55   Parcialmente Nublado 14° 87% 1020 Sul-sudeste/19 km/h OK
20/10 - 05:55   Parcialmente Nublado 14° 87% 1020 Sul-sudeste/19 km/h OK
20/10 - 04:55   Parcialmente Nublado 15° 82% 1019 Sul-sudeste/30 km/h OK
20/10 - 03:55   Chovendo fraco 15° 87% 1018 Sul/34 km/h OK


Apolo11.com - Todos os direitos reservados - 2000 - 2018
Política de Privacidade   |     Termo de Uso e Licenciamento   |  -   Entre em Contato

"Deve-se dizer sempre a verdade, mas nem todas as verdades se devem dizer" - Rainha Cristina